Time;durP1;ratioP1;P1;durP2;ratioP2;P2;SDS_P1;SDS_P2;PMS_P1;PMS_P2;Temp;Humidity;BMP_temperature;BMP_pressure;BME280_temperature;BME280_humidity;BME280_pressure;Samples;Min_cycle;Max_cycle;Signal;HPM_P1;HPM_P2
2023/01/02 00:01:46;;;;;;;3.80;2.05;;;14.60;99.90;;;;;;5014285;28;20033;-89
2023/01/02 00:04:12;;;;;;;3.72;2.10;;;14.60;99.90;;;;;;5009012;28;20041;-88
2023/01/02 00:06:38;;;;;;;4.70;2.00;;;14.60;99.90;;;;;;5014674;28;20029;-88
2023/01/02 00:09:05;;;;;;;3.77;2.30;;;14.70;99.90;;;;;;5023856;28;20032;-89
2023/01/02 00:11:31;;;;;;;6.70;2.53;;;14.70;99.90;;;;;;5014378;28;20290;-88
2023/01/02 00:13:57;;;;;;;4.18;2.30;;;14.70;99.90;;;;;;5000587;28;20108;-88
2023/01/02 00:16:23;;;;;;;4.82;2.30;;;14.70;99.90;;;;;;4997171;28;20573;-88
2023/01/02 00:18:49;;;;;;;4.23;2.27;;;14.80;99.90;;;;;;5011142;28;20040;-89
2023/01/02 00:21:16;;;;;;;4.30;2.08;;;14.80;99.90;;;;;;4999502;28;20087;-88
2023/01/02 00:23:41;;;;;;;6.22;2.38;;;14.80;99.90;;;;;;5022046;28;20021;-88
2023/01/02 00:26:08;;;;;;;6.00;2.47;;;14.80;99.90;;;;;;4998703;28;20031;-88
2023/01/02 00:28:35;;;;;;;5.00;2.50;;;14.80;99.90;;;;;;5007541;28;20460;-89
2023/01/02 00:31:12;;;;;;;5.72;2.20;;;14.90;99.90;;;;;;5016793;28;20510;-87
2023/01/02 00:33:38;;;;;;;3.92;2.08;;;14.90;99.90;;;;;;4974856;28;20743;-87
2023/01/02 00:36:09;;;;;;;7.05;2.20;;;14.90;99.90;;;;;;5008156;28;20021;-86
2023/01/02 00:38:35;;;;;;;4.23;2.00;;;14.90;99.90;;;;;;5006477;28;20051;-90
2023/01/02 00:41:01;;;;;;;5.00;1.98;;;14.90;99.90;;;;;;5017341;28;20025;-88
2023/01/02 00:43:27;;;;;;;4.75;2.13;;;14.90;99.90;;;;;;5032312;28;20584;-87
2023/01/02 00:45:53;;;;;;;5.80;2.38;;;14.90;99.90;;;;;;5002897;28;20029;-88
2023/01/02 00:48:20;;;;;;;3.70;1.87;;;14.90;99.90;;;;;;5001048;28;20021;-88
2023/01/02 00:50:45;;;;;;;3.92;2.00;;;14.90;99.90;;;;;;4983307;28;20108;-87
2023/01/02 00:53:11;;;;;;;5.07;2.00;;;14.90;99.90;;;;;;4992415;28;20021;-88
2023/01/02 00:55:37;;;;;;;4.93;2.20;;;14.80;99.90;;;;;;5016802;28;20033;-88
2023/01/02 00:58:03;;;;;;;2.50;1.60;;;14.90;99.90;;;;;;5001400;28;20120;-87
2023/01/02 01:00:29;;;;;;;3.40;1.95;;;14.80;99.90;;;;;;5014229;28;20052;-88
2023/01/02 01:02:56;;;;;;;5.07;1.90;;;14.80;99.90;;;;;;5036463;28;20425;-88
2023/01/02 01:05:26;;;;;;;3.97;2.00;;;14.80;99.90;;;;;;4977492;28;20351;-88
2023/01/02 01:07:54;;;;;;;3.88;1.92;;;14.80;99.90;;;;;;5018449;28;20021;-87
2023/01/02 01:10:20;;;;;;;5.22;2.10;;;14.80;99.90;;;;;;5003931;28;20285;-87
2023/01/02 01:12:47;;;;;;;5.70;2.30;;;14.80;99.90;;;;;;5017680;28;20128;-88
2023/01/02 01:15:13;;;;;;;7.20;2.17;;;14.80;99.90;;;;;;4999033;28;20060;-88
2023/01/02 01:17:39;;;;;;;5.75;2.22;;;14.80;99.90;;;;;;5012135;28;20785;-88
2023/01/02 01:20:06;;;;;;;4.20;1.92;;;14.80;99.90;;;;;;4997057;28;20334;-87
2023/01/02 01:22:32;;;;;;;3.40;1.63;;;14.80;99.90;;;;;;5002071;28;20330;-88
2023/01/02 01:24:58;;;;;;;6.10;2.15;;;14.80;99.90;;;;;;4993927;28;20021;-87
2023/01/02 01:27:24;;;;;;;4.88;2.10;;;14.80;99.90;;;;;;4996138;28;20135;-91
2023/01/02 01:29:49;;;;;;;3.47;1.93;;;14.80;99.90;;;;;;5036372;28;20388;-88
2023/01/02 01:32:15;;;;;;;5.85;2.28;;;14.80;99.90;;;;;;5002976;28;20549;-88
2023/01/02 01:34:40;;;;;;;5.17;2.03;;;14.80;99.90;;;;;;5007790;28;20025;-87
2023/01/02 01:37:06;;;;;;;4.15;1.75;;;14.80;99.90;;;;;;4984325;28;20059;-88
2023/01/02 01:39:32;;;;;;;4.07;2.00;;;14.80;99.90;;;;;;5015289;28;20032;-88
2023/01/02 01:41:59;;;;;;;5.70;1.90;;;14.80;99.90;;;;;;5014970;28;20032;-88
2023/01/02 01:44:48;;;;;;;3.63;1.90;;;14.80;99.90;;;;;;4996561;28;20150;-87
2023/01/02 01:47:17;;;;;;;4.90;1.85;;;14.80;99.90;;;;;;5029451;28;20037;-88
2023/01/02 01:49:44;;;;;;;3.22;1.73;;;14.80;99.90;;;;;;5034845;28;20025;-88
2023/01/02 01:52:14;;;;;;;6.75;2.38;;;14.70;99.90;;;;;;4991441;28;20060;-88
2023/01/02 01:54:47;;;;;;;5.87;2.30;;;14.70;99.90;;;;;;4992598;28;20048;-88
2023/01/02 01:57:28;;;;;;;4.28;2.13;;;14.70;99.90;;;;;;4997981;28;20047;-88
2023/01/02 01:59:55;;;;;;;5.35;2.08;;;14.70;99.90;;;;;;5013539;28;20288;-89
2023/01/02 02:02:22;;;;;;;4.03;1.75;;;14.70;99.90;;;;;;5010060;28;20045;-88
2023/01/02 02:04:48;;;;;;;4.07;1.80;;;14.70;99.90;;;;;;4999724;28;20045;-88
2023/01/02 02:07:14;;;;;;;4.03;1.83;;;14.70;99.90;;;;;;4994744;28;20055;-87
2023/01/02 02:09:47;;;;;;;5.25;2.00;;;14.70;99.90;;;;;;5014121;28;20052;-88
2023/01/02 02:12:13;;;;;;;3.50;1.80;;;14.70;99.90;;;;;;4984079;28;20029;-89
2023/01/02 02:14:39;;;;;;;5.43;2.30;;;14.80;99.90;;;;;;5013232;28;20064;-89
2023/01/02 02:17:21;;;;;;;3.85;1.88;;;14.70;99.90;;;;;;5014271;28;20669;-88
2023/01/02 02:19:56;;;;;;;2.45;1.60;;;14.70;99.90;;;;;;4998948;28;20052;-88
2023/01/02 02:22:43;;;;;;;4.65;2.20;;;14.70;99.90;;;;;;4990080;28;20025;-90
2023/01/02 02:25:34;;;;;;;3.60;1.85;;;14.70;99.90;;;;;;5011742;28;20037;-86
2023/01/02 02:28:12;;;;;;;4.87;2.17;;;14.70;99.90;;;;;;5015973;28;20056;-87
2023/01/02 02:30:41;;;;;;;6.40;2.28;;;14.70;99.90;;;;;;5032377;28;20225;-88
2023/01/02 02:33:19;;;;;;;5.05;1.90;;;14.70;99.90;;;;;;5015409;28;20049;-89
2023/01/02 02:36:08;;;;;;;2.83;1.70;;;14.70;99.90;;;;;;5031896;28;20041;-89
2023/01/02 02:38:53;;;;;;;3.70;1.80;;;14.70;99.90;;;;;;4975765;28;20590;-88
2023/01/02 02:41:32;;;;;;;5.00;1.90;;;14.60;99.90;;;;;;5006212;28;20578;-87
2023/01/02 02:44:10;;;;;;;3.97;1.85;;;14.70;99.90;;;;;;5001441;28;20028;-86
2023/01/02 02:47:04;;;;;;;4.25;2.05;;;14.60;99.90;;;;;;5012287;28;20576;-87
2023/01/02 02:49:48;;;;;;;3.65;1.70;;;14.60;99.90;;;;;;5012850;28;20212;-87
2023/01/02 02:52:20;;;;;;;2.65;1.70;;;14.70;99.90;;;;;;5007650;28;20029;-88
2023/01/02 02:54:54;;;;;;;4.17;2.00;;;14.60;99.90;;;;;;4989383;28;20456;-87
2023/01/02 02:57:21;;;;;;;4.93;1.95;;;14.60;99.90;;;;;;5019184;28;20432;-87
2023/01/02 02:59:47;;;;;;;4.78;2.10;;;14.60;99.90;;;;;;5030356;28;20092;-87
2023/01/02 03:02:15;;;;;;;4.37;1.90;;;14.60;99.90;;;;;;5015407;28;20063;-90
2023/01/02 03:04:45;;;;;;;3.87;1.90;;;14.60;99.90;;;;;;4996947;28;20283;-87
2023/01/02 03:07:27;;;;;;;3.55;1.70;;;14.60;99.90;;;;;;5012986;28;20021;-87
2023/01/02 03:09:56;;;;;;;4.65;1.95;;;14.60;99.90;;;;;;5014238;28;20020;-87
2023/01/02 03:12:33;;;;;;;4.63;1.98;;;14.60;99.90;;;;;;4971265;28;20659;-89
2023/01/02 03:15:11;;;;;;;4.07;2.08;;;14.60;99.90;;;;;;5013849;28;20017;-88
2023/01/02 03:18:27;;;;;;;4.43;2.13;;;14.50;99.90;;;;;;4996180;28;20283;-88
2023/01/02 03:21:06;;;;;;;4.15;1.80;;;14.50;99.90;;;;;;4952840;28;20573;-87
2023/01/02 03:23:40;;;;;;;4.20;1.80;;;14.60;99.90;;;;;;4932757;28;20097;-88
2023/01/02 03:26:06;;;;;;;3.45;1.90;;;14.60;99.90;;;;;;4984423;28;20620;-89
2023/01/02 03:28:35;;;;;;;3.60;1.97;;;14.60;99.90;;;;;;5003329;28;20528;-86
2023/01/02 03:31:03;;;;;;;2.83;1.47;;;14.60;99.90;;;;;;5033701;28;20881;-86
2023/01/02 03:33:34;;;;;;;3.85;1.77;;;14.60;99.90;;;;;;4990254;28;20646;-87
2023/01/02 03:36:05;;;;;;;3.00;1.90;;;14.60;99.90;;;;;;4998392;28;20021;-87
2023/01/02 03:38:45;;;;;;;4.38;1.90;;;14.60;99.90;;;;;;5013269;28;20281;-87
2023/01/02 03:41:18;;;;;;;4.43;1.88;;;14.60;99.90;;;;;;4978995;28;20715;-85
2023/01/02 03:43:47;;;;;;;5.70;1.60;;;14.60;99.90;;;;;;5032772;28;20029;-87
2023/01/02 03:46:43;;;;;;;3.28;1.92;;;14.70;99.90;;;;;;5022107;28;20210;-87
2023/01/02 03:49:22;;;;;;;2.78;1.60;;;14.70;99.90;;;;;;4994522;28;20024;-87
2023/01/02 03:51:48;;;;;;;4.10;1.70;;;14.70;99.90;;;;;;5014406;28;20404;-87
2023/01/02 03:54:15;;;;;;;4.75;1.80;;;14.70;99.90;;;;;;4995392;28;20021;-89
2023/01/02 03:56:53;;;;;;;4.40;2.10;;;14.70;99.90;;;;;;5010161;28;20497;-89
2023/01/02 03:59:58;;;;;;;4.40;2.00;;;14.80;99.90;;;;;;5002762;28;20028;-88
2023/01/02 04:02:44;;;;;;;3.90;2.05;;;14.80;99.90;;;;;;4988014;28;20358;-88
2023/01/02 04:05:38;;;;;;;3.97;1.80;;;14.80;99.90;;;;;;5009375;28;20033;-87
2023/01/02 04:08:24;;;;;;;3.55;1.77;;;14.80;99.90;;;;;;5000200;28;20033;-87
2023/01/02 04:10:53;;;;;;;3.43;1.60;;;14.80;99.90;;;;;;5020111;28;20115;-87
2023/01/02 04:13:25;;;;;;;3.25;1.80;;;14.70;99.90;;;;;;4994817;28;20024;-88
2023/01/02 04:15:52;;;;;;;3.88;1.70;;;14.80;99.90;;;;;;5009867;28;20032;-88
2023/01/02 04:18:24;;;;;;;2.70;1.50;;;14.80;99.90;;;;;;5033107;28;20032;-89
2023/01/02 04:20:55;;;;;;;6.30;1.70;;;14.70;99.90;;;;;;5016966;28;20039;-87
2023/01/02 04:23:48;;;;;;;2.43;1.50;;;14.70;99.90;;;;;;5029298;28;20331;-88
2023/01/02 04:26:30;;;;;;;3.08;1.60;;;14.70;99.90;;;;;;4999983;28;20393;-89
2023/01/02 04:28:56;;;;;;;2.97;1.48;;;14.70;99.90;;;;;;4979956;28;20025;-88
2023/01/02 04:31:26;;;;;;;3.67;1.40;;;14.70;99.90;;;;;;4984342;28;20032;-89
2023/01/02 04:33:57;;;;;;;2.27;1.40;;;14.70;99.90;;;;;;5018559;28;20024;-88
2023/01/02 04:36:23;;;;;;;3.08;1.38;;;14.70;99.90;;;;;;5009007;28;20198;-88
2023/01/02 04:38:49;;;;;;;4.22;1.60;;;14.70;99.90;;;;;;5001091;28;20017;-89
2023/01/02 04:41:25;;;;;;;2.88;1.35;;;14.70;99.90;;;;;;5017039;28;20070;-88
2023/01/02 04:43:55;;;;;;;3.17;1.33;;;14.70;99.90;;;;;;4978553;28;20025;-87
2023/01/02 04:46:23;;;;;;;3.00;1.67;;;14.70;99.90;;;;;;5003101;28;20242;-87
2023/01/02 04:48:49;;;;;;;2.30;1.50;;;14.70;99.90;;;;;;5016207;28;20064;-87
2023/01/02 04:51:15;;;;;;;7.47;1.70;;;14.70;99.90;;;;;;5016104;28;20104;-88
2023/01/02 04:53:40;;;;;;;4.23;1.30;;;14.70;99.90;;;;;;4996600;28;20056;-87
2023/01/02 04:56:07;;;;;;;3.05;1.25;;;14.70;99.90;;;;;;5013482;28;20436;-87
2023/01/02 04:58:32;;;;;;;2.30;1.27;;;14.70;99.90;;;;;;4984142;28;20228;-88
2023/01/02 05:00:58;;;;;;;1.90;1.23;;;14.70;99.90;;;;;;5000593;28;20103;-88
2023/01/02 05:03:25;;;;;;;3.10;1.30;;;14.70;99.90;;;;;;4989321;28;20985;-88
2023/01/02 05:05:58;;;;;;;2.42;1.30;;;14.70;99.90;;;;;;4988459;28;20037;-86
2023/01/02 05:08:24;;;;;;;3.47;1.20;;;14.60;99.90;;;;;;5006114;28;20026;-86
2023/01/02 05:10:49;;;;;;;3.30;1.40;;;14.60;99.90;;;;;;4992538;28;20010;-87
2023/01/02 05:13:16;;;;;;;3.13;1.52;;;14.60;99.90;;;;;;4979675;28;20021;-88
2023/01/02 05:15:41;;;;;;;2.93;1.30;;;14.50;99.90;;;;;;4991404;28;20021;-90
2023/01/02 05:18:07;;;;;;;3.03;1.23;;;14.50;99.90;;;;;;4988871;28;20369;-89
2023/01/02 05:20:34;;;;;;;2.07;1.17;;;14.60;99.90;;;;;;5010317;28;20085;-87
2023/01/02 05:25:43;;;;;;;2.33;1.30;;;14.50;99.90;;;;;;5012717;28;20160;-87
2023/01/02 05:28:09;;;;;;;2.90;1.20;;;14.50;99.90;;;;;;5008782;28;20033;-88
2023/01/02 05:30:37;;;;;;;2.50;1.03;;;14.50;99.90;;;;;;4972199;28;20304;-87
2023/01/02 05:33:03;;;;;;;1.83;1.10;;;14.40;99.90;;;;;;4987526;28;20080;-87
2023/01/02 05:35:29;;;;;;;5.07;1.20;;;14.40;99.90;;;;;;5006568;28;20293;-87
2023/01/02 05:37:55;;;;;;;1.80;1.00;;;14.40;99.90;;;;;;4980411;28;20025;-87
2023/01/02 05:40:21;;;;;;;2.08;1.00;;;14.40;99.90;;;;;;4978855;28;20021;-87
2023/01/02 05:42:46;;;;;;;2.67;0.95;;;14.40;99.90;;;;;;4994967;28;20628;-87
2023/01/02 05:45:12;;;;;;;1.57;0.90;;;14.30;99.90;;;;;;4964448;28;20057;-87
2023/01/02 05:47:38;;;;;;;1.98;1.08;;;14.30;99.90;;;;;;4981957;28;20053;-88
2023/01/02 05:50:05;;;;;;;1.42;0.82;;;14.30;99.90;;;;;;4999827;28;20394;-89
2023/01/02 05:52:31;;;;;;;1.80;1.20;;;14.30;99.90;;;;;;4976792;28;20410;-86
2023/01/02 05:54:56;;;;;;;2.03;1.20;;;14.30;99.90;;;;;;4982091;28;20029;-89
2023/01/02 05:57:22;;;;;;;2.13;1.00;;;14.20;99.90;;;;;;5006522;28;20025;-89
2023/01/02 05:59:48;;;;;;;1.60;1.00;;;14.20;99.90;;;;;;4996547;28;20018;-87
2023/01/02 06:02:14;;;;;;;1.27;0.90;;;14.20;99.90;;;;;;4957513;28;20080;-88
2023/01/02 06:04:40;;;;;;;0.97;0.73;;;14.10;99.90;;;;;;4983057;28;20117;-87
2023/01/02 06:07:05;;;;;;;0.70;0.70;;;14.10;99.90;;;;;;4995777;28;20115;-88
2023/01/02 06:09:31;;;;;;;1.10;0.60;;;14.00;99.90;;;;;;5030370;28;20219;-85
2023/01/02 06:11:57;;;;;;;0.75;0.60;;;13.90;99.90;;;;;;5014047;28;20235;-87
2023/01/02 06:14:23;;;;;;;0.60;0.60;;;13.80;99.90;;;;;;4993370;28;20226;-87
2023/01/02 06:16:49;;;;;;;0.60;0.52;;;13.70;99.90;;;;;;5012794;28;20033;-88
2023/01/02 06:19:15;;;;;;;0.70;0.60;;;13.70;99.90;;;;;;5009555;28;20056;-88
2023/01/02 06:21:41;;;;;;;0.60;0.60;;;13.60;99.90;;;;;;5015408;28;20050;-86
2023/01/02 06:24:07;;;;;;;0.60;0.50;;;13.60;99.90;;;;;;5000104;28;20028;-86
2023/01/02 06:26:33;;;;;;;0.47;0.47;;;13.50;99.90;;;;;;5010967;28;20726;-88
2023/01/02 06:28:58;;;;;;;1.00;0.70;;;13.50;99.90;;;;;;5000443;28;20428;-88
2023/01/02 06:31:26;;;;;;;0.68;0.63;;;13.40;99.90;;;;;;4992676;28;20278;-87
2023/01/02 06:33:57;;;;;;;1.02;0.80;;;13.40;99.90;;;;;;4995614;28;20543;-87
2023/01/02 06:36:24;;;;;;;1.00;0.67;;;13.40;99.90;;;;;;5000568;28;20422;-88
2023/01/02 06:38:49;;;;;;;1.00;0.63;;;13.30;99.90;;;;;;5002852;28;20417;-87
2023/01/02 06:41:16;;;;;;;0.82;0.70;;;13.20;99.90;;;;;;4996526;28;20040;-87
2023/01/02 06:43:44;;;;;;;1.15;0.80;;;13.20;99.90;;;;;;5014133;28;20537;-86
2023/01/02 06:46:11;;;;;;;1.70;0.80;;;13.20;99.90;;;;;;4998291;28;20017;-88
2023/01/02 06:48:37;;;;;;;1.57;1.00;;;13.10;99.90;;;;;;5001471;28;20182;-87
2023/01/02 06:51:09;;;;;;;1.77;1.00;;;13.10;99.90;;;;;;4997262;28;20032;-87
2023/01/02 06:53:38;;;;;;;2.42;1.13;;;13.10;99.90;;;;;;5029961;28;20123;-87
2023/01/02 06:56:04;;;;;;;4.05;1.80;;;13.10;99.90;;;;;;4999448;28;20036;-86
2023/01/02 06:58:32;;;;;;;4.72;1.98;;;13.00;99.90;;;;;;4992466;28;20234;-87
2023/01/02 07:01:07;;;;;;;4.40;2.10;;;13.00;99.90;;;;;;5030394;28;20028;-87
2023/01/02 07:03:33;;;;;;;4.43;2.10;;;12.90;99.90;;;;;;4988659;28;20372;-87
2023/01/02 07:06:01;;;;;;;4.50;1.80;;;13.00;99.90;;;;;;5000614;28;20025;-87
2023/01/02 07:08:27;;;;;;;3.90;1.80;;;12.90;99.90;;;;;;5004532;28;20127;-87
2023/01/02 07:10:52;;;;;;;3.80;1.90;;;12.90;99.90;;;;;;4998975;28;20022;-87
2023/01/02 07:13:19;;;;;;;4.57;2.15;;;12.90;99.90;;;;;;5011866;28;20384;-88
2023/01/02 07:15:44;;;;;;;4.57;2.08;;;12.80;99.90;;;;;;4981202;28;20044;-87
2023/01/02 07:18:10;;;;;;;4.80;2.17;;;12.80;99.90;;;;;;4986053;28;20388;-87
2023/01/02 07:20:35;;;;;;;4.40;2.20;;;12.80;99.90;;;;;;4987664;28;20325;-87
2023/01/02 07:23:01;;;;;;;4.70;2.10;;;12.80;99.90;;;;;;5007648;28;20110;-86
2023/01/02 07:25:27;;;;;;;4.40;2.37;;;12.80;99.90;;;;;;5029119;28;20065;-87
2023/01/02 07:27:53;;;;;;;5.05;1.98;;;12.70;99.90;;;;;;5015339;28;20444;-87
2023/01/02 07:30:19;;;;;;;5.05;2.47;;;12.70;99.90;;;;;;5008596;28;20047;-88
2023/01/02 07:32:45;;;;;;;4.50;2.30;;;12.70;99.90;;;;;;5014916;28;20409;-88
2023/01/02 07:35:10;;;;;;;6.15;2.60;;;12.70;99.90;;;;;;4994475;28;20025;-86
2023/01/02 07:37:37;;;;;;;4.95;2.35;;;12.70;99.90;;;;;;4994878;28;20238;-86
2023/01/02 07:40:03;;;;;;;5.20;2.40;;;12.70;99.90;;;;;;5003159;28;20021;-88
2023/01/02 07:42:28;;;;;;;4.93;2.50;;;12.70;99.90;;;;;;5016019;28;20266;-87
2023/01/02 07:44:54;;;;;;;6.47;2.88;;;12.70;99.90;;;;;;5013384;28;20064;-87
2023/01/02 07:47:20;;;;;;;5.70;2.70;;;12.70;99.90;;;;;;5032366;28;20093;-86
2023/01/02 07:49:46;;;;;;;5.38;2.38;;;12.60;99.90;;;;;;5035099;28;20025;-86
2023/01/02 07:52:11;;;;;;;4.90;2.33;;;12.60;99.90;;;;;;4990428;28;20049;-87
2023/01/02 07:54:37;;;;;;;5.25;2.55;;;12.60;99.90;;;;;;5032205;28;20024;-87
2023/01/02 07:57:03;;;;;;;4.90;2.57;;;12.60;99.90;;;;;;5013302;28;20043;-87
2023/01/02 07:59:29;;;;;;;5.15;2.53;;;12.60;99.90;;;;;;4999439;28;20040;-87
2023/01/02 08:01:55;;;;;;;5.45;2.63;;;12.60;99.90;;;;;;5001423;28;20024;-87
2023/01/02 08:04:21;;;;;;;5.13;2.50;;;12.60;99.90;;;;;;4999609;28;20036;-87
2023/01/02 08:06:47;;;;;;;5.15;2.50;;;12.60;99.90;;;;;;4980595;28;20679;-88
2023/01/02 08:09:12;;;;;;;5.35;2.70;;;12.60;99.90;;;;;;5009947;28;20382;-87
2023/01/02 08:11:38;;;;;;;5.60;2.80;;;12.60;99.90;;;;;;5004042;28;20481;-87
2023/01/02 08:14:04;;;;;;;5.47;2.63;;;12.60;99.90;;;;;;4985234;28;21678;-87
2023/01/02 08:16:30;;;;;;;5.78;2.97;;;12.60;99.90;;;;;;5001742;28;20500;-87
2023/01/02 08:18:56;;;;;;;6.37;2.70;;;12.60;99.90;;;;;;5002305;28;20053;-87
2023/01/02 08:21:23;;;;;;;5.90;2.90;;;12.60;99.90;;;;;;4981153;28;21405;-86
2023/01/02 08:23:49;;;;;;;5.28;2.97;;;12.60;99.90;;;;;;4997557;28;20555;-87
2023/01/02 08:26:15;;;;;;;6.40;2.90;;;12.60;99.90;;;;;;4989507;28;20222;-88
2023/01/02 08:28:42;;;;;;;6.25;2.97;;;12.50;99.90;;;;;;5012256;28;20539;-87
2023/01/02 08:31:14;;;;;;;4.80;2.33;;;12.50;99.90;;;;;;5014823;28;20013;-87
2023/01/02 08:33:40;;;;;;;4.70;2.40;;;12.50;99.90;;;;;;4998399;28;20021;-87
2023/01/02 08:36:07;;;;;;;6.22;2.60;;;12.50;99.90;;;;;;4998103;28;20021;-87
2023/01/02 08:38:32;;;;;;;5.45;2.45;;;12.40;99.90;;;;;;5017768;28;20044;-86
2023/01/02 08:40:58;;;;;;;5.43;2.43;;;12.40;99.90;;;;;;4993877;28;20029;-87
2023/01/02 08:43:25;;;;;;;5.28;2.53;;;12.40;99.90;;;;;;4993529;28;20112;-87
2023/01/02 08:45:51;;;;;;;5.72;2.50;;;12.40;99.90;;;;;;5002028;28;20032;-87
2023/01/02 08:48:17;;;;;;;6.88;3.08;;;12.40;99.90;;;;;;5032093;28;20231;-87
2023/01/02 08:50:43;;;;;;;6.33;2.80;;;12.40;99.90;;;;;;5002054;28;20242;-86
2023/01/02 08:53:09;;;;;;;5.95;2.70;;;12.40;99.90;;;;;;4977955;28;21316;-87
2023/01/02 08:55:34;;;;;;;5.78;2.58;;;12.40;99.90;;;;;;5027906;28;20033;-87
2023/01/02 08:58:00;;;;;;;7.00;3.10;;;12.40;99.90;;;;;;4996409;28;20123;-88
2023/01/02 09:00:26;;;;;;;7.28;3.25;;;12.40;99.90;;;;;;5013486;28;20084;-87
2023/01/02 09:02:52;;;;;;;6.30;2.77;;;12.40;99.90;;;;;;5007449;28;20586;-87
2023/01/02 09:05:18;;;;;;;6.80;2.90;;;12.40;99.90;;;;;;5017946;28;20072;-87
2023/01/02 09:07:44;;;;;;;5.77;2.97;;;12.50;99.90;;;;;;5001301;28;20021;-87
2023/01/02 09:10:10;;;;;;;5.70;2.60;;;12.50;99.90;;;;;;4977407;28;20592;-87
2023/01/02 09:12:36;;;;;;;6.35;2.90;;;12.50;99.90;;;;;;5007393;28;20994;-88
2023/01/02 09:15:03;;;;;;;5.37;2.40;;;12.50;99.90;;;;;;4987948;28;20013;-87
2023/01/02 09:17:29;;;;;;;5.05;2.50;;;12.50;99.90;;;;;;4996354;28;20555;-87
2023/01/02 09:19:55;;;;;;;6.55;2.63;;;12.50;99.90;;;;;;5013855;28;20029;-87
2023/01/02 09:22:20;;;;;;;5.83;2.57;;;12.50;99.90;;;;;;4999224;28;20170;-87
2023/01/02 09:24:46;;;;;;;4.88;2.35;;;12.60;99.90;;;;;;4996174;28;20013;-87
2023/01/02 09:27:13;;;;;;;5.53;2.60;;;12.60;99.90;;;;;;5025171;28;20037;-87
2023/01/02 09:29:39;;;;;;;5.17;2.40;;;12.60;99.90;;;;;;4998679;28;20074;-87
2023/01/02 09:32:05;;;;;;;5.57;2.60;;;12.60;99.90;;;;;;5003955;28;20455;-87
2023/01/02 09:34:31;;;;;;;5.85;2.53;;;12.60;99.90;;;;;;4998671;28;20025;-86
2023/01/02 09:36:56;;;;;;;5.17;2.47;;;12.60;99.90;;;;;;4993940;28;20033;-87
2023/01/02 09:39:22;;;;;;;5.00;2.60;;;12.60;99.90;;;;;;5011322;28;20041;-87
2023/01/02 09:41:53;;;;;;;4.17;2.30;;;12.60;99.90;;;;;;4974124;28;20033;-88
2023/01/02 09:44:24;;;;;;;4.00;2.05;;;12.60;99.90;;;;;;4998705;28;20367;-87
2023/01/02 09:46:59;;;;;;;3.80;2.10;;;12.60;99.90;;;;;;5005625;28;20024;-87
2023/01/02 09:49:28;;;;;;;4.88;2.10;;;12.70;99.90;;;;;;5013945;28;20706;-87
2023/01/02 09:51:54;;;;;;;4.33;2.40;;;12.70;99.90;;;;;;4997141;28;20313;-87
2023/01/02 09:54:27;;;;;;;4.15;2.08;;;12.70;99.90;;;;;;5014065;28;20226;-87
2023/01/02 09:57:24;;;;;;;3.70;1.98;;;12.80;99.90;;;;;;4975894;28;20025;-87
2023/01/02 10:00:03;;;;;;;3.33;2.00;;;12.80;99.90;;;;;;5009939;28;20032;-87
2023/01/02 10:02:39;;;;;;;4.67;2.30;;;12.90;99.90;;;;;;5002514;28;20029;-87
2023/01/02 10:05:17;;;;;;;4.65;2.17;;;13.00;99.90;;;;;;5011988;28;21039;-87
2023/01/02 10:07:54;;;;;;;4.03;1.90;;;13.10;99.90;;;;;;5016557;28;20083;-87
2023/01/02 10:10:35;;;;;;;4.10;1.98;;;13.10;99.90;;;;;;5012188;28;20314;-87
2023/01/02 10:13:26;;;;;;;3.47;1.98;;;13.10;99.90;;;;;;4981325;28;20021;-87
2023/01/02 10:15:53;;;;;;;3.27;1.90;;;13.10;99.90;;;;;;5022177;28;20037;-88
2023/01/02 10:18:22;;;;;;;3.45;1.75;;;13.20;99.90;;;;;;5002663;28;20209;-87
2023/01/02 10:21:14;;;;;;;3.22;1.92;;;13.20;99.90;;;;;;4998629;28;20107;-87
2023/01/02 10:23:53;;;;;;;3.00;1.92;;;13.20;99.90;;;;;;4999035;28;20370;-87
2023/01/02 10:26:29;;;;;;;3.30;1.88;;;13.20;99.90;;;;;;4990838;28;21159;-87
2023/01/02 10:29:14;;;;;;;3.13;1.90;;;13.20;99.90;;;;;;5006972;28;20025;-87
2023/01/02 10:31:46;;;;;;;3.97;2.20;;;13.20;99.90;;;;;;5014183;28;20079;-88
2023/01/02 10:34:19;;;;;;;2.95;1.80;;;13.20;99.90;;;;;;5010652;28;20145;-87
2023/01/02 10:36:46;;;;;;;2.72;1.73;;;13.10;99.90;;;;;;4993558;28;20078;-87
2023/01/02 10:39:18;;;;;;;2.90;1.80;;;13.20;99.90;;;;;;5011860;28;20021;-87
2023/01/02 10:41:51;;;;;;;3.17;1.90;;;13.20;99.90;;;;;;4997550;28;20076;-88
2023/01/02 10:44:31;;;;;;;2.85;1.80;;;13.20;99.90;;;;;;5000806;28;20029;-88
2023/01/02 10:47:05;;;;;;;3.20;1.90;;;13.20;99.90;;;;;;5013269;28;20052;-87
2023/01/02 10:49:33;;;;;;;2.70;1.70;;;13.20;99.90;;;;;;4989065;28;20020;-87
2023/01/02 10:52:03;;;;;;;2.83;1.70;;;13.20;99.90;;;;;;5010216;28;20056;-88
2023/01/02 10:54:29;;;;;;;2.50;1.60;;;13.20;99.90;;;;;;5011853;28;20100;-88
2023/01/02 10:56:56;;;;;;;3.28;1.60;;;13.20;99.90;;;;;;5011326;28;20141;-88
2023/01/02 10:59:27;;;;;;;2.53;1.48;;;13.20;99.90;;;;;;4980448;28;20411;-87
2023/01/02 11:01:56;;;;;;;2.30;1.48;;;13.20;99.90;;;;;;5000493;28;20023;-88
2023/01/02 11:04:27;;;;;;;2.50;1.60;;;13.30;99.90;;;;;;5011596;28;20045;-87
2023/01/02 11:07:00;;;;;;;2.65;1.42;;;13.30;99.90;;;;;;5004454;28;20025;-87
2023/01/02 11:09:28;;;;;;;2.00;1.30;;;13.30;99.90;;;;;;4995985;28;20140;-87
2023/01/02 11:11:57;;;;;;;3.08;1.40;;;13.30;99.90;;;;;;5011782;28;20025;-87
2023/01/02 11:14:29;;;;;;;2.45;1.45;;;13.30;99.90;;;;;;4993431;28;20253;-87
2023/01/02 11:17:05;;;;;;;2.37;1.60;;;13.30;99.90;;;;;;5000859;28;20036;-87
2023/01/02 11:19:42;;;;;;;2.13;1.50;;;13.30;99.90;;;;;;4998969;28;20129;-87
2023/01/02 11:22:13;;;;;;;1.83;1.50;;;13.30;99.90;;;;;;5018500;28;20280;-84
2023/01/02 11:24:56;;;;;;;2.70;1.30;;;13.30;99.90;;;;;;5015994;28;20036;-85
2023/01/02 11:27:27;;;;;;;2.22;1.40;;;13.20;99.90;;;;;;5006591;28;20298;-85
2023/01/02 11:29:53;;;;;;;2.10;1.50;;;13.30;99.90;;;;;;4987888;28;20146;-85
2023/01/02 11:32:27;;;;;;;2.00;1.48;;;13.20;99.90;;;;;;4990406;28;20033;-85
2023/01/02 11:34:59;;;;;;;2.72;1.40;;;13.20;99.90;;;;;;5012301;28;20120;-85
2023/01/02 11:37:26;;;;;;;1.77;1.38;;;13.20;99.90;;;;;;5009834;28;20033;-85
2023/01/02 11:40:05;;;;;;;2.63;1.60;;;13.20;99.90;;;;;;4997048;28;20025;-85
2023/01/02 11:45:20;;;;;;;2.13;1.50;;;13.20;99.90;;;;;;4994626;28;20029;-84
2023/01/02 11:47:52;;;;;;;2.33;1.60;;;13.20;99.90;;;;;;4990150;28;20036;-87
2023/01/02 11:50:27;;;;;;;2.45;1.60;;;13.10;99.90;;;;;;5029863;28;20056;-85
2023/01/02 11:53:11;;;;;;;3.80;1.60;;;13.10;99.90;;;;;;4988738;28;20021;-85
2023/01/02 11:55:58;;;;;;;2.67;1.70;;;13.10;99.90;;;;;;5011985;28;20412;-84
2023/01/02 11:58:33;;;;;;;3.03;1.70;;;13.10;99.90;;;;;;5012860;28;20618;-85
2023/01/02 12:01:21;;;;;;;2.60;1.60;;;13.10;99.90;;;;;;4970530;28;20029;-85
2023/01/02 12:03:47;;;;;;;3.13;1.50;;;13.10;99.90;;;;;;4989716;28;20072;-85
2023/01/02 12:06:22;;;;;;;2.43;1.40;;;13.10;99.90;;;;;;4994552;28;20098;-85
2023/01/02 12:08:59;;;;;;;2.38;1.30;;;13.10;99.90;;;;;;5004463;28;20453;-85
2023/01/02 12:11:43;;;;;;;2.13;1.23;;;13.10;99.90;;;;;;5014358;28;20044;-85
2023/01/02 12:14:26;;;;;;;2.38;1.20;;;13.10;99.90;;;;;;5010093;28;20706;-85
2023/01/02 12:17:06;;;;;;;2.38;1.33;;;13.10;99.90;;;;;;4989569;28;20024;-85
2023/01/02 12:20:00;;;;;;;2.00;1.20;;;13.10;99.90;;;;;;5002721;28;20706;-84
2023/01/02 12:22:48;;;;;;;1.90;1.30;;;13.10;99.90;;;;;;4998241;28;20420;-85
2023/01/02 12:25:33;;;;;;;3.13;1.40;;;13.00;99.90;;;;;;5004730;28;20311;-85
2023/01/02 12:28:31;;;;;;;1.67;1.38;;;13.00;99.90;;;;;;5018718;28;20272;-85
2023/01/02 12:31:23;;;;;;;2.20;1.30;;;13.00;99.90;;;;;;4989697;28;20045;-84
2023/01/02 12:33:49;;;;;;;2.60;1.47;;;13.00;99.90;;;;;;4993339;28;20566;-85
2023/01/02 12:36:20;;;;;;;3.05;1.38;;;13.00;99.90;;;;;;4999596;28;20068;-85
2023/01/02 12:38:51;;;;;;;1.73;1.40;;;13.00;99.90;;;;;;5031029;28;20048;-84
2023/01/02 12:41:29;;;;;;;2.10;1.40;;;13.00;99.90;;;;;;5007225;28;20259;-86
2023/01/02 12:44:18;;;;;;;2.40;1.50;;;13.00;99.90;;;;;;4999766;28;20090;-85
2023/01/02 12:47:10;;;;;;;3.65;1.42;;;13.00;99.90;;;;;;4990818;28;20116;-84
2023/01/02 12:49:51;;;;;;;2.35;1.40;;;13.00;99.90;;;;;;4995356;28;20032;-85
2023/01/02 12:52:55;;;;;;;2.08;1.50;;;13.00;99.90;;;;;;5016321;28;20124;-85
2023/01/02 12:55:42;;;;;;;2.10;1.50;;;13.10;99.90;;;;;;4950405;28;20084;-85
2023/01/02 12:58:29;;;;;;;2.60;1.67;;;13.10;99.90;;;;;;4957040;28;20416;-85
2023/01/02 13:01:14;;;;;;;2.42;1.60;;;13.20;99.90;;;;;;4994553;28;20670;-87
2023/01/02 13:04:11;;;;;;;2.92;1.60;;;13.20;99.90;;;;;;5014749;28;20409;-87
2023/01/02 13:06:49;;;;;;;2.60;1.73;;;13.30;99.90;;;;;;4995721;28;20041;-88
2023/01/02 13:09:31;;;;;;;3.20;1.90;;;13.30;99.90;;;;;;5017145;28;20134;-89
2023/01/02 13:12:02;;;;;;;2.90;2.00;;;13.40;99.90;;;;;;5020448;28;20087;-87
2023/01/02 13:14:52;;;;;;;4.03;2.03;;;13.40;99.90;;;;;;4994456;28;20532;-87